Latest Weather Observations for Maatsuyker Island

IDT60801

Issued at 3:35 am EST Monday 21 April 2014 (issued every 30 minutes, with the page automatically refreshed every 10 minutes)

About weather observations | Map of weather stations | Latest weather observations for TAS | Other Formats
Station Details ID: 094041 Name: MAATSUYKER ISLAND LIGHTHOUSE Lat: -43.66 Lon: 146.27 Height: 146.5 m
Data from the previous 72 hours. | See also: Recent months at Maatsuyker Island
Date/Time
EST
Temp
°C
App
Temp
°C
Dew
Point
Rel
Hum
%
Delta-T
°C
Wind Press
QNH
hPa
Press
MSL
hPa
Rain
since 9 am
mm
Dir
 
Spd
km/h
Gust
km/h
Spd
kts
Gust
kts
21/03:30am 9.3 1.3 1.4 58 3.3 WNW 33 41 18 22 1015.6 - 3.2
21/03:00am 9.3 0.5 1.1 56 3.4 NW 37 44 20 24 1015.5 1015.6 3.2
21/02:30am 9.3 0.7 0.4 54 3.6 WNW 35 41 19 22 1015.7 - 3.2
21/02:00am 9.5 -0.5 1.0 55 3.5 WNW 43 50 23 27 1015.4 - 3.2
21/01:30am 9.5 -0.5 0.7 54 3.6 WNW 43 50 23 27 1015.5 - 3.2
21/01:00am 9.5 0.4 1.9 59 3.2 WNW 39 46 21 25 1015.2 - 3.2
21/12:30am 9.6 0.0 0.9 54 3.6 WNW 41 48 22 26 1014.9 - 3.2
21/12:00am 9.7 0.6 1.9 58 3.3 WNW 39 46 21 25 1014.7 1014.7 3.2
 
Date/Time
EST
Temp
°C
App
Temp
°C
Dew
Point
Rel
Hum
%
Delta-T
°C
Wind Press
QNH
hPa
Press
MSL
hPa
Rain
since 9 am
mm
Dir
 
Spd
km/h
Gust
km/h
Spd
kts
Gust
kts
20/11:30pm 9.6 0.0 1.2 56 3.5 WNW 41 50 22 27 1014.4 - 3.2
20/11:00pm 9.6 1.2 1.5 57 3.4 WNW 35 48 19 26 1014.4 - 3.2
20/10:30pm 9.7 -0.6 0.4 52 3.8 WNW 44 54 24 29 1014.3 - 3.2
20/10:00pm 9.7 -1.5 1.9 58 3.3 WNW 50 61 27 33 1014.2 - 3.2
20/09:30pm 9.7 0.3 -0.3 49 4.0 WNW 39 46 21 25 1014.2 - 3.2
20/09:00pm 9.8 -0.6 -0.1 50 4.0 WNW 44 52 24 28 1013.8 1013.8 3.2
20/08:30pm 10.0 -1.7 1.1 54 3.7 WNW 52 59 28 32 1013.1 - 3.2
20/08:00pm 9.8 -2.0 -2.2 43 4.6 WNW 50 59 27 32 1013.0 - 3.2
20/07:30pm 9.9 -0.6 -1.3 45 4.4 WNW 44 57 24 31 1013.0 - 3.2
20/07:00pm 10.1 -0.9 0.6 51 3.9 WNW 48 61 26 33 1012.6 - 3.2
20/06:30pm 10.1 -2.2 2.1 57 3.4 WNW 56 67 30 36 1011.7 - 3.2
20/06:00pm 9.8 -1.4 2.0 58 3.3 WNW 50 61 27 33 1011.7 1011.7 3.2
20/05:30pm 10.5 0.0 3.5 62 3.1 WNW 48 61 26 33 1011.1 - 3.2
20/05:00pm 10.6 -0.7 3.4 61 3.2 WNW 52 65 28 35 1010.2 - 3.2
20/04:30pm 10.8 -0.8 3.9 62 3.1 WNW 54 65 29 35 1010.1 - 3.2
20/04:00pm 10.8 -1.6 4.4 64 2.9 WNW 59 70 32 38 1009.0 - 3.2
20/03:38pm 10.7 -0.6 5.3 69 2.5 WNW 54 72 29 39 1009.1 - 3.2
20/03:30pm 11.1 -1.7 6.2 72 2.3 WNW 63 76 34 41 1008.9 - 3.2
20/03:00pm 11.2 2.2 7.1 76 2.0 NW 44 65 24 35 1008.3 1008.3 3.2
20/02:53pm 10.9 0.7 6.9 76 1.9 W 50 69 27 37 1008.6 - 3.2
20/02:30pm 11.1 -1.9 7.2 77 1.9 WNW 65 76 35 41 1007.4 - 3.2
20/02:00pm 11.1 -1.3 8.3 83 1.4 WNW 63 76 34 41 1007.1 - 3.2
20/01:30pm 10.7 -2.7 9.5 92 0.6 NW 70 82 38 44 1006.3 - 3.2
20/01:00pm 11.0 -0.9 10.0 93 0.5 NW 63 74 34 40 1005.4 - 3.0
20/12:30pm 12.2 -2.6 11.3 94 0.5 NW 80 93 43 50 1004.8 - 2.0
20/12:00pm 12.7 -1.1 10.8 88 1.0 NNW 74 93 40 50 1004.8 1004.8 1.6
20/11:37am 12.8 1.2 9.9 82 1.5 NNW 61 83 33 45 1004.9 - 1.2
20/11:30am 13.0 1.9 10.3 84 1.4 NNW 59 76 32 41 1005.4 - 1.2
20/11:21am 12.8 1.7 10.3 85 1.3 NNW 59 74 32 40 1005.6 - 1.2
20/11:05am 12.2 4.7 10.7 90 0.8 NNW 41 61 22 33 1006.1 - 1.2
20/11:00am 11.9 4.3 10.4 90 0.8 NNW 41 50 22 27 1006.6 - 1.2
20/10:30am 11.8 4.2 10.5 92 0.7 NNW 41 50 22 27 1006.9 - 0.8
20/10:00am 11.5 3.2 9.9 90 0.8 NNW 44 54 24 29 1007.0 - 0.2
20/09:30am 11.2 3.0 9.6 90 0.8 NNW 43 56 23 30 1007.3 - 0.0
20/09:00am 11.1 5.3 9.3 89 0.9 NW 30 52 16 28 1007.4 1007.4 1.0
20/08:30am 10.4 2.0 9.0 91 0.7 NNW 43 57 23 31 1007.7 - 1.0
20/08:00am 10.2 2.2 9.0 92 0.6 NNW 41 54 22 29 1007.9 - 1.0
20/07:30am 9.8 2.1 8.6 92 0.6 NNW 39 52 21 28 1008.1 - 0.8
20/07:00am 10.1 1.8 7.6 84 1.2 NNW 41 50 22 27 1008.1 - 0.6
20/06:30am 10.4 1.7 7.5 82 1.4 NNW 43 54 23 29 1008.2 - 0.6
20/06:00am 10.0 2.3 7.3 83 1.3 NW 37 52 20 28 1008.3 1008.3 0.6
20/05:30am 10.0 1.1 6.8 80 1.5 NNW 43 54 23 29 1008.4 - 0.6
20/05:00am 9.6 1.1 6.9 83 1.3 NNW 41 54 22 29 1008.5 - 0.6
20/04:30am 9.8 1.7 6.9 82 1.4 NNW 39 52 21 28 1008.7 - 0.6
20/04:00am 9.7 1.4 6.1 78 1.7 NNW 39 50 21 27 1008.8 - 0.6
20/03:30am 9.6 2.4 5.7 76 1.8 NNW 33 48 18 26 1009.3 - 0.6
20/03:00am 9.4 1.9 6.4 81 1.4 NNW 35 50 19 27 1009.7 1009.7 0.6
20/02:30am 9.6 2.5 5.5 75 1.9 NNW 32 43 17 23 1010.1 - 0.6
20/02:00am 9.7 2.5 5.8 77 1.8 NNW 33 46 18 25 1010.6 - 0.6
20/01:30am 9.5 2.2 5.6 76 1.8 NNW 33 44 18 24 1011.1 - 0.6
20/01:00am 9.6 2.4 5.7 76 1.8 NNW 33 44 18 24 1011.4 - 0.6
20/12:30am 9.9 2.7 5.1 72 2.2 NNW 32 41 17 22 1011.8 - 0.6
20/12:00am 9.9 2.7 5.1 72 2.2 NNW 32 41 17 22 1011.9 1011.9 0.6
 
Date/Time
EST
Temp
°C
App
Temp
°C
Dew
Point
Rel
Hum
%
Delta-T
°C
Wind Press
QNH
hPa
Press
MSL
hPa
Rain
since 9 am
mm
Dir
 
Spd
km/h
Gust
km/h
Spd
kts
Gust
kts
19/11:30pm 9.6 2.2 5.2 74 2.0 NNW 33 43 18 23 1012.2 - 0.6
19/11:00pm 9.7 3.4 5.6 75 1.9 NNW 28 35 15 19 1012.6 - 0.6
19/10:30pm 9.6 3.3 5.9 78 1.7 NNW 28 37 15 20 1013.0 - 0.6
19/10:00pm 9.5 4.2 6.7 83 1.3 NNW 24 32 13 17 1013.6 - 0.6
19/09:30pm 9.7 3.8 5.8 77 1.8 N 26 33 14 18 1013.7 - 0.6
19/09:25pm 9.6 3.7 5.7 76 1.8 N 26 33 14 18 1013.7 - 0.6
19/09:00pm 9.9 1.6 4.3 68 2.5 NW 37 46 20 25 1013.6 1013.6 0.6
19/08:30pm 9.4 1.3 7.1 85 1.1 NNW 39 57 21 31 1013.8 - 0.6
19/08:29pm 9.3 0.4 7.0 85 1.1 NNW 43 57 23 31 1013.7 - 0.6
19/08:02pm 10.0 1.8 6.6 79 1.6 WNW 39 61 21 33 1013.9 - 0.6
19/08:00pm 9.7 1.8 6.0 78 1.7 WNW 37 44 20 24 1014.1 - 0.6
19/07:30pm 10.3 0.9 4.5 67 2.6 NW 43 50 23 27 1014.0 - 0.6
19/07:00pm 9.9 0.5 4.3 68 2.5 NW 43 50 23 27 1014.1 - 0.6
19/06:30pm 9.8 0.4 4.2 68 2.5 NW 43 50 23 27 1014.1 - 0.6
19/06:00pm 9.1 0.1 6.5 84 1.2 NNW 43 54 23 29 1014.2 1014.2 0.6
19/05:30pm 10.2 0.4 3.4 62 3.0 NW 44 52 24 28 1014.1 - 0.4
19/05:00pm 10.1 2.5 4.0 66 2.7 WNW 33 41 18 22 1014.4 - 0.4
19/04:30pm 9.9 2.0 4.6 69 2.4 WNW 35 43 19 23 1014.7 - 0.4
19/04:00pm 10.3 2.4 4.5 67 2.6 WNW 35 43 19 23 1014.5 - 0.4
19/03:30pm 10.1 2.1 4.0 66 2.7 WNW 35 43 19 23 1014.8 - 0.4
19/03:00pm 9.9 4.9 6.3 78 1.7 WNW 22 35 12 19 1015.0 1015.1 0.4
19/02:30pm 10.3 3.2 6.5 77 1.8 WNW 33 43 18 23 1015.1 - 0.4
19/02:00pm 9.2 1.8 6.9 85 1.1 WNW 35 41 19 22 1015.2 - 0.4
19/01:30pm 8.6 -1.2 6.9 89 0.8 NW 48 59 26 32 1015.0 - 0.4
19/01:24pm 9.3 1.6 7.0 85 1.1 WNW 37 56 20 30 1015.1 - 0.2
19/01:00pm 10.8 4.0 4.9 67 2.7 WNW 30 39 16 21 1015.4 - 0.0
19/12:30pm 10.1 3.9 4.3 67 2.6 W 26 33 14 18 1016.0 - 0.0
19/12:00pm 9.8 4.4 6.4 79 1.6 WSW 24 35 13 19 1016.4 1016.4 0.0
19/11:30am 8.9 1.7 5.8 81 1.4 WNW 33 41 18 22 1016.5 - 0.0
19/11:00am 10.4 5.6 5.4 71 2.3 WNW 20 28 11 15 1016.4 - 0.0
19/10:30am 10.3 4.4 4.0 65 2.8 WNW 24 32 13 17 1016.4 - 0.0
19/10:00am 9.2 3.4 4.5 72 2.1 SW 24 35 13 19 1016.6 - 0.0
19/09:30am 10.3 4.8 3.8 64 2.9 W 22 32 12 17 1016.4 - 0.0
19/09:00am 10.1 4.5 3.5 63 2.9 WSW 22 30 12 16 1016.2 1016.3 3.8
19/08:30am 9.8 3.0 3.1 63 2.9 SW 28 39 15 21 1016.2 - 3.8
19/08:00am 9.6 2.6 1.7 58 3.3 WSW 28 37 15 20 1016.0 - 3.8
19/07:30am 9.6 2.9 1.5 57 3.4 SW 26 41 14 22 1015.7 - 3.8
19/07:00am 9.6 1.7 0.9 54 3.6 SW 32 43 17 23 1015.6 - 3.8
19/06:30am 9.7 2.4 2.7 61 3.0 WSW 30 41 16 22 1015.4 - 3.8
19/06:00am 9.5 2.7 3.3 65 2.7 WSW 28 46 15 25 1015.3 1015.4 3.8
19/05:30am 9.8 2.4 3.9 66 2.6 WSW 32 43 17 23 1015.1 - 3.8
19/05:00am 9.8 2.2 2.9 62 3.0 WSW 32 43 17 23 1014.9 - 3.8
19/04:30am 9.6 1.8 2.6 61 3.0 WSW 33 44 18 24 1014.8 - 3.8
19/04:00am 9.8 2.4 3.9 66 2.6 SW 32 44 17 24 1014.5 - 3.8
19/03:30am 9.9 2.8 3.5 64 2.8 WSW 30 43 16 23 1014.5 - 3.8
19/03:00am 10.0 3.1 4.7 69 2.4 W 30 46 16 25 1014.5 1014.5 3.8
19/02:58am 10.0 3.4 4.4 68 2.5 W 28 46 15 25 1014.5 - 3.8
19/02:30am 9.8 2.2 3.7 66 2.7 WSW 33 46 18 25 1014.5 - 3.8
19/02:00am 10.1 2.7 4.8 69 2.4 SW 33 44 18 24 1014.4 - 3.8
19/01:42am 10.0 1.1 2.8 61 3.1 WSW 39 46 21 25 1014.5 - 3.8
19/01:30am 9.9 2.3 4.1 67 2.6 W 33 44 18 24 1014.5 - 3.8
19/01:00am 9.9 2.0 4.3 68 2.5 WSW 35 48 19 26 1014.3 - 3.8
19/12:30am 9.7 2.8 4.8 71 2.2 W 30 50 16 27 1014.4 - 3.8
19/12:13am 10.1 2.7 4.0 66 2.7 W 32 50 17 27 1014.3 - 3.8
19/12:00am 9.9 1.8 5.3 73 2.1 W 37 44 20 24 1014.3 1014.3 3.8
 
Date/Time
EST
Temp
°C
App
Temp
°C
Dew
Point
Rel
Hum
%
Delta-T
°C
Wind Press
QNH
hPa
Press
MSL
hPa
Rain
since 9 am
mm
Dir
 
Spd
km/h
Gust
km/h
Spd
kts
Gust
kts
18/11:35pm 9.8 0.4 5.2 73 2.1 W 44 56 24 30 1014.3 - 3.8
18/11:30pm 9.8 2.4 4.9 71 2.2 WSW 33 50 18 27 1014.4 - 3.8
18/11:00pm 9.6 1.4 5.0 73 2.1 WSW 37 50 20 27 1014.3 - 3.8
18/10:30pm 9.4 1.3 5.2 75 1.9 WSW 37 50 20 27 1014.3 - 3.8
18/10:00pm 9.3 1.7 4.1 70 2.3 W 33 52 18 28 1014.4 - 3.4
18/09:31pm 9.3 1.2 5.1 75 1.9 WSW 37 57 20 31 1014.3 - 3.2
18/09:30pm 9.8 2.0 4.9 71 2.2 WSW 35 52 19 28 1014.2 - 3.2
18/09:25pm 9.9 1.8 3.5 64 2.8 SW 35 59 19 32 1014.0 - 3.2
18/09:20pm 9.8 0.3 3.9 66 2.6 SW 43 59 23 32 1014.0 - 3.2
18/09:16pm 10.4 2.6 4.7 68 2.6 W 35 59 19 32 1014.0 - 3.2
18/09:00pm 10.2 2.7 4.7 68 2.5 W 33 48 18 26 1013.9 1013.8 3.2
18/08:49pm 9.7 2.3 5.1 73 2.1 W 33 54 18 29 1013.8 - 3.2
18/08:37pm 10.8 2.0 5.6 70 2.4 SW 41 56 22 30 1013.6 - 3.0
18/08:35pm 10.8 2.9 4.6 65 2.8 W 35 56 19 30 1013.5 - 3.0
18/08:30pm 10.3 1.7 2.7 59 3.3 W 37 50 20 27 1013.4 - 3.0
18/08:22pm 10.6 2.0 4.9 68 2.6 W 39 54 21 29 1013.4 - 3.0
18/08:00pm 10.7 1.9 3.7 62 3.1 WSW 39 56 21 30 1013.2 - 3.0
18/07:51pm 10.8 2.9 4.1 63 3.0 WSW 35 56 19 30 1013.1 - 3.0
18/07:30pm 11.0 2.4 4.6 64 2.9 W 39 50 21 27 1012.8 - 3.0
18/07:00pm 10.8 2.8 5.6 70 2.4 W 37 50 20 27 1012.5 - 3.0
18/06:30pm 10.2 1.8 5.7 73 2.1 W 39 48 21 26 1012.4 - 3.0
18/06:10pm 10.5 2.0 6.9 78 1.7 W 41 61 22 33 1012.2 - 3.0
18/06:00pm 9.9 2.0 6.3 78 1.7 W 37 50 20 27 1012.0 1012.0 3.0
18/05:30pm 9.9 1.1 7.2 83 1.3 W 43 61 23 33 1011.4 - 3.0
18/05:26pm 10.5 3.2 7.4 81 1.5 W 35 57 19 31 1011.4 - 2.8
18/05:00pm 11.1 0.3 6.0 71 2.4 WNW 52 61 28 33 1010.7 - 2.8
18/04:30pm 11.3 0.7 5.3 66 2.8 WNW 50 61 27 33 1010.5 - 2.8
18/04:05pm 11.7 1.2 7.2 74 2.2 WNW 52 70 28 38 1009.4 - 2.8
18/04:00pm 11.2 1.7 8.2 82 1.5 WNW 48 57 26 31 1009.7 - 2.8
18/03:56pm 10.6 0.8 7.1 79 1.7 WNW 48 67 26 36 1009.8 - 2.8
18/03:30pm 11.8 0.7 6.3 69 2.6 WNW 54 65 29 35 1009.8 - 2.8
18/03:00pm 12.4 3.8 6.3 66 2.9 WNW 41 61 22 33 1009.6 1009.6 2.8
18/02:30pm 11.8 2.1 5.6 66 2.9 WNW 46 57 25 31 1009.5 - 2.8
18/02:00pm 11.5 -0.2 5.5 66 2.8 WNW 56 65 30 35 1009.0 - 2.8
18/01:30pm 12.2 2.1 7.5 73 2.3 WNW 50 63 27 34 1008.4 - 2.8
18/01:00pm 11.9 1.2 8.1 77 1.9 WNW 54 65 29 35 1008.4 - 2.8
18/12:30pm 11.2 1.0 6.8 74 2.1 WNW 50 59 27 32 1008.7 - 2.8
18/12:00pm 11.3 -0.3 8.3 82 1.5 WNW 59 67 32 36 1008.4 1008.4 2.8
18/11:30am 10.8 -0.3 8.2 84 1.3 WNW 56 69 30 37 1008.8 - 2.8
18/11:21am 11.3 1.1 8.7 84 1.3 WNW 52 63 28 34 1008.6 - 2.8
18/11:00am 11.1 3.1 9.1 87 1.0 NNW 41 52 22 28 1008.4 - 2.0
18/10:30am 10.6 2.0 8.2 85 1.2 NNW 43 48 23 26 1008.5 - 2.0
18/10:00am 11.1 2.0 8.3 83 1.4 NNW 46 57 25 31 1008.4 - 1.2
18/09:31am 11.6 2.0 9.6 87 1.0 NW 50 69 27 37 1008.0 - 0.4
18/09:30am 11.7 2.3 10.0 89 0.9 NW 50 59 27 32 1008.3 - 0.4
18/09:22am 10.7 0.6 7.4 80 1.6 WNW 50 74 27 40 1008.5 - 0.4
18/09:19am 11.4 -1.8 9.6 89 0.9 NW 69 74 37 40 1007.4 - 0.2
18/09:16am 11.9 2.9 8.9 82 1.5 NW 46 67 25 36 1007.6 - 0.0
18/09:00am 11.8 5.7 10.5 92 0.7 NNW 33 54 18 29 1007.4 1007.5 2.4
18/08:30am 11.3 1.9 10.1 92 0.6 NW 50 59 27 32 1007.3 - 2.4
18/08:17am 10.7 1.4 9.1 90 0.8 NW 48 61 26 33 1007.2 - 2.2
18/08:04am 10.7 -2.2 9.3 91 0.7 WNW 67 74 36 40 1007.6 - 0.8
18/08:00am 13.6 4.9 10.0 79 1.9 NNW 46 65 25 35 1006.8 - 0.0
18/07:30am 14.1 7.2 9.0 71 2.6 NNW 35 46 19 25 1006.4 - 0.0
18/07:00am 14.4 7.5 8.9 69 2.8 NNW 35 48 19 26 1006.6 - 0.0
18/06:30am 14.1 7.7 9.5 74 2.4 NNW 33 48 18 26 1006.7 - 0.0
18/06:00am 13.8 9.6 9.6 76 2.2 NNW 22 39 12 21 1007.2 1007.2 0.0
18/05:30am 13.9 8.0 9.2 73 2.4 NNW 30 41 16 22 1007.5 - 0.0
18/05:00am 13.9 7.8 9.7 76 2.2 NNW 32 43 17 23 1008.0 - 0.0
18/04:30am 13.9 7.7 9.9 77 2.1 NNW 33 43 18 23 1008.4 - 0.0
18/04:00am 13.9 7.7 10.1 78 2.0 NNW 33 44 18 24 1009.0 - 0.0

Other Formats:

Comma delimited format used in spreadsheet applications
http://www.bom.gov.au/fwo/IDT60801/IDT60801.94962.axf

JavaScript Object Notation format (JSON) in row-major order
http://www.bom.gov.au/fwo/IDT60801/IDT60801.94962.json